Hualapai Flat, Nevada Weather observations

Data are for 10 minute period ending at time listed.
 Day   Time   Solar   Ave.   Ave.  Ave.  Vector  Max.   Baro.   Total    
  of    of     Rad.   Air    Rel.  Wind   Wind   Wind  Press.  Precip.   
Year   Day            Temp.  Hum.  Speed  Dir.   Gust                    
2015   (PST)  Kw/m2    F      %     mph   deg.    mph    mb.     in.     
-------------------------------------------------------------------------
  89    4:30   0.00   34.4    59    2.9   268     5.0   879.1    0.00 
  89    4:40   0.00   35.7    58    2.2   303     4.5   879.1    0.00 
  89    4:50   0.00   33.8    63    3.2   309     4.5   879.1    0.00 
  89    5:00   0.00   34.4    55    4.0   297     6.5   879.1    0.00 
  89    5:10   0.00   32.1    73    3.1     8     6.9   879.3    0.00 
  89    5:20   0.00   31.5    77    1.2   283     2.3   879.3    0.00 
  89    5:30   0.00   31.5    72    2.4   310     4.1   879.4    0.00 
  89    5:40   0.00   32.2    62    2.5   277     4.0   879.5    0.00 
  89    5:50   0.01   32.9    56    3.2   285     3.9   879.5    0.00 
  89    6:00   0.02   32.2    58    3.7   294     5.3   879.6    0.00 
  89    6:10   0.05   33.7    55    5.0   301     5.6   879.7    0.00 
  89    6:20   0.08   33.1    56    4.7   298     6.3   879.7    0.00 
  89    6:30   0.11   33.5    54    5.5   294     6.4   879.7    0.00 
  89    6:40   0.14   34.5    66    3.3   332     4.8   879.7    0.00 
  89    6:50   0.17   35.0    74    2.7   340     3.7   879.8    0.00 
  89    7:00   0.21   36.3    75    3.1   342     4.5   879.8    0.00 
  89    7:10   0.24   37.9    74    3.1   346     4.2   879.7    0.00 
  89    7:20   0.28   40.1    66    3.3   339     4.4   879.8    0.00 
  89    7:30   0.32   42.0    61    3.2   339     4.2   879.8    0.00 
  89    7:40   0.37   44.4    63    2.6    18     3.6   879.7    0.00 
  89    7:50   0.43   46.5    58    2.0   352     3.2   879.5    0.00 
  89    8:00   0.52   48.9    50    2.4   351     4.3   879.5    0.00 
  89    8:10   0.39   51.4    47    1.2     6     3.0   879.5    0.00 
  89    8:20   0.35   54.4    31    0.9   356     2.9   879.6    0.00 
  89    8:30   0.41   56.9    28    0.5    39     1.9   879.7    0.00 
  89    8:40   0.53   58.5    26    0.9    25     2.3   879.9    0.00 
  89    8:50   0.59   59.3    26    1.4    95     2.9   879.9    0.00 
  89    9:00   0.66   60.8    25    1.5   141     3.0   880.0    0.00 
  89    9:10   0.78   63.5    23    1.9   212     4.3   880.1    0.00 
  89    9:20   0.72   64.9    26    2.6   191     4.2   880.1    0.00 
  89    9:30   0.54   66.3    22    1.3   204     3.4   880.1    0.00 
  89    9:40   0.38   65.4    24    2.8   178     4.8   880.1    0.00 
  89    9:50   0.32   63.6    25    2.5   160     4.1   880.0    0.00 
  89   10:00   0.36   62.0    28    5.3   130     7.8   879.9    0.00 
  89   10:10   0.73   61.7    30    7.0   122    10.7   879.8    0.00 
  89   10:20   0.77   62.5    27    7.0   134    10.9   879.7    0.00 
  89   10:30   0.80   63.7    25    6.4   134     9.3   879.6    0.00 
  89   10:40   0.82   64.4    26    3.9   123     6.1   879.6    0.00 
  89   10:50   0.83   65.8    22    3.9   144     6.4   879.5    0.00 
  89   11:00   0.84   67.2    20    1.0    93     5.3   879.5    0.00 
  89   11:10   0.84   67.0    20    1.9    28     5.0   879.3    0.00 
  89   11:20   0.85   68.5    21    2.8   146     6.5   879.1    0.00 
  89   11:30   0.86   68.0    21    1.9    89     4.9   879.0    0.00 
  89   11:40   0.84   68.1    18    3.6    90     9.0   878.8    0.00 
  89   11:50   0.88   68.9    20    3.8   142     9.1   878.7    0.00 
  89   12:00   0.86   69.7    22    5.4   142     9.9   878.5    0.00 
  89   12:10   0.67   70.9    22    5.2   155     8.6   878.3    0.00 
  89   12:20   0.81   70.9    22    5.4   147    10.9   878.1    0.00 
  89   12:30   0.87   72.7    22    4.7   151     8.8   877.9    0.00 
  89   12:40   0.78   72.8    21    5.9   150    11.5   877.7    0.00 
  89   12:50   0.89   74.8    20    7.8   167    12.2   877.6    0.00 
  89   13:00   0.86   76.2    20    8.5   165    15.7   877.2    0.00 
  89   13:10   0.72   75.8    19    7.9   179    14.8   877.0    0.00 
  89   13:20   0.71   74.1    20    5.6   142    12.6   876.8    0.00 
  89   13:30   0.78   73.5    22    6.2   152    11.4   876.6    0.00 
  89   13:40   0.78   75.8    20    7.2   165    12.7   876.3    0.00 
  89   13:50   0.67   75.7    19   12.4   158    20.2   876.0    0.00 
  89   14:00   0.66   74.4    20   11.1   156    17.4   875.9    0.00 
  89   14:10   0.52   75.0    19    8.9   172    15.8   875.7    0.00 
  89   14:20   0.45   74.7    21    9.7   192    14.1   875.6    0.00 
  89   14:30   0.40   74.2    22   11.0   181    19.4   875.4    0.00 
  89   14:40   0.35   72.7    23   10.6   194    16.3   875.3    0.00 
  89   14:50   0.36   72.5    22    6.9   220    12.1   875.2    0.00 
  89   15:00   0.39   73.8    22    6.6   209    11.8   875.0    0.00 
  89   15:10   0.56   74.9    20    6.2   237    10.0   874.9    0.00 
  89   15:20   0.44   75.6    20    8.2   185    13.2   874.7    0.00 
  89   15:30   0.46   75.9    23    6.4   214    11.8   874.6    0.00 
  89   15:40   0.46   75.5    18    7.7   233    14.0   874.5    0.00 
  89   15:50   0.34   74.6    16    9.0   244    18.3   874.4    0.00 
  89   16:00   0.36   74.2    17    9.5   236    16.5   874.3    0.00 
  89   16:10   0.42   74.6    19    7.3   214    12.6   874.2    0.00 
  89   16:20   0.28   74.9    17    7.3   241    12.3   874.2    0.00 
  89   16:30   0.14   72.5    18   10.3   234    15.9   874.1    0.00 
  89   16:40   0.14   71.6    17    7.1   253    10.7   874.0    0.00 
  89   16:50   0.13   71.0    20    6.8   240     8.9   874.0    0.00 
  89   17:00   0.12   70.1    23    7.5   225    10.1   873.9    0.00 
  89   17:10   0.09   69.2    24    5.8   213     8.3   873.9    0.00 
  89   17:20   0.07   68.3    28    5.7   204     7.7   873.9    0.00 
  89   17:30   0.07   66.8    32    5.2   199     6.9   873.9    0.00 
  89   17:40   0.05   66.0    33    4.7   196     5.5   873.8    0.00 
  89   17:50   0.04   66.3    26    3.5   220     4.5   873.7    0.00 
  89   18:00   0.03   68.9    22    3.4   210     4.4   873.7    0.00 
  89   18:10   0.02   69.0    18    3.6   228     4.5   873.7    0.00 
  89   18:20   0.01   68.7    19    5.9   236    10.1   873.7    0.00 
  89   18:30   0.00   66.4    21    9.6   268    13.1   873.7    0.00 
  89   18:40   0.00   67.4    22   10.2   268    13.5   873.8    0.00 
  89   18:50   0.00   66.6    23    9.7   260    13.2   874.0    0.00 
  89   19:00   0.00   66.7    23    9.7   260    13.8   874.1    0.00 
  89   19:10   0.00   65.8    23    9.8   261    12.2   874.2    0.00 
  89   19:20   0.00   65.9    23    9.0   261    11.9   874.3    0.00 
  89   19:30   0.00   63.6    24    9.3   257    11.5   874.4    0.00 
  89   19:40   0.00   62.9    24   10.5   269    13.2   874.4    0.00 
  89   19:50   0.00   62.6    24    9.3   270    12.7   874.4    0.00 
  89   20:00   0.00   61.8    25    8.5   266    11.0   874.7    0.00 
  89   20:10   0.00   62.0    24    6.8   268     9.4   874.9    0.00 
  89   20:20   0.00   61.3    26    4.5   256     6.1   875.0    0.00 
  89   20:30   0.00   64.1    24    6.8   315    12.8   875.1    0.00 
  89   20:40   0.00   66.3    22    3.5   335    13.6   875.0    0.00 
  89   20:50   0.00   65.3    24    3.8   336     7.5   874.9    0.00 
  89   21:00   0.00   64.8    24    5.2   155     8.6   874.8    0.00 
  89   21:10   0.00   62.8    28    3.7   236     6.5   874.7    0.00 
  89   21:20   0.00   57.5    32    3.3   266     6.2   874.8    0.00 
  89   21:30   0.00   61.1    26    4.2   282    10.6   874.7    0.00 
  89   21:40   0.00   61.7    26    3.7   247     5.8   874.7    0.00 
  89   21:50   0.00   59.9    28    3.7   234     6.2   874.7    0.00 
  89   22:00   0.00   60.9    25    2.6   261     4.1   874.6    0.00 
  89   22:10   0.00   61.3    23    3.4   234     6.4   874.5    0.00 
  89   22:20   0.00   59.7    26    4.8   214     7.7   874.5    0.00 
  89   22:30   0.00   56.8    28    2.7   233     4.7   874.5    0.00 
  89   22:40   0.00   59.2    26    2.8   237     5.0   874.5    0.00 
  89   22:50   0.00   57.2    30    2.3   191     3.9   874.4    0.00 
  89   23:00   0.00   59.4    24    2.5   296     6.4   874.4    0.00 
  89   23:10   0.00   62.9    21    4.3    90    10.7   874.4    0.00 
  89   23:20   0.00   62.0    24   10.9    86    22.9   874.3    0.00 
  89   23:30   0.00   63.2    22    7.0   228    15.5   874.5    0.00 
  89   23:40   0.00   61.6    26    7.4    78    14.8   874.4    0.00 
  89   23:50   0.00   61.9    26   14.3    76    22.6   874.2    0.00 
  90    0:00   0.00   61.1    27   12.5   100    26.7   874.2    0.00 
  90    0:10   0.00   61.0    26   10.0    40    13.7   874.4    0.00 
  90    0:20   0.00   62.1    23    8.9   351    17.5   874.3    0.00 
  90    0:30   0.00   61.1    25   12.2   343    23.9   874.1    0.00 
  90    0:40   0.00   60.7    26   14.7   334    18.9   874.1    0.00 
  90    0:50   0.00   61.8    23   12.9   297    24.5   874.2    0.00 
  90    1:00   0.00   60.9    26    6.9   325    12.1   874.3    0.00 
  90    1:10   0.00   59.5    26    9.3   305    16.1   874.2    0.00 
  90    1:20   0.00   60.7    25    5.4   300    13.6   874.2    0.00 
  90    1:30   0.00   58.8    31    4.9    40    13.3   874.0    0.00 
  90    1:40   0.00   57.1    32    3.0   334     9.1   874.0    0.00 
  90    1:50   0.00   59.2    30    2.9    24     7.6   873.9    0.00 
  90    2:00   0.00   58.7    29    4.2   344     8.9   873.9    0.00 
  90    2:10   0.00   58.7    29    4.9    17    10.6   873.9    0.00 
  90    2:20   0.00   58.8    31    7.2    40    12.9   873.9    0.00 
  90    2:30   0.00   58.9    29    4.8   324    10.0   873.9    0.00 
  90    2:40   0.00   59.1    29    4.2   150    13.4   873.9    0.00 
  90    2:50   0.00   58.8    30    6.4   315    14.9   873.8    0.00 
  90    3:00   0.00   59.4    29    5.4    21    11.0   873.8    0.00 
  90    3:10   0.00   58.6    30    6.1   328    19.3   873.9    0.00 
  90    3:20   0.00   58.2    32    7.2   111    21.9   873.8    0.00 
  90    3:30   0.00   57.5    33    3.5   178    11.3   873.7    0.00 
  90    3:40   0.00   57.4    32    8.1   308    21.3   873.4    0.00 
  90    3:50   0.00   56.2    34    8.6   330    13.8   873.3    0.00 
  90    4:00   0.00   54.4    38    8.4   334    13.4   873.3    0.00 
  90    4:10   0.00   52.6    41    8.4   337    12.4   873.3    0.00 
  90    4:20   0.00   53.1    38    8.2   329    12.6   873.3    0.00 

Return to Hualapai Flat graphs page.


Western Regional Climate Center,wrcc@dri.edu